Time;durP1;ratioP1;P1;durP2;ratioP2;P2;SDS_P1;SDS_P2;PMS_P1;PMS_P2;Temp;Humidity;BMP_temperature;BMP_pressure;BME280_temperature;BME280_humidity;BME280_pressure;Samples;Min_cycle;Max_cycle;Signal;HPM_P1;HPM_P2
2021/10/26 00:00:40;;;;;;;684.67;650.23;;;11.40;99.90;;;;;;6126729;23;20430;-86
2021/10/26 00:03:07;;;;;;;696.20;661.10;;;11.40;99.90;;;;;;6135718;23;20407;-84
2021/10/26 00:05:34;;;;;;;663.97;632.07;;;11.30;99.90;;;;;;6126586;23;20470;-85
2021/10/26 00:08:01;;;;;;;659.27;627.47;;;11.40;99.90;;;;;;6126805;23;20407;-85
2021/10/26 00:10:29;;;;;;;672.43;639.93;;;11.50;99.90;;;;;;6136552;23;20446;-84
2021/10/26 00:12:56;;;;;;;680.77;646.97;;;11.40;99.90;;;;;;6136522;23;20851;-88
2021/10/26 00:15:26;;;;;;;688.00;654.17;;;11.30;99.90;;;;;;6136295;23;20957;-82
2021/10/26 00:17:57;;;;;;;699.40;663.87;;;11.30;99.90;;;;;;6135051;23;20403;-86
2021/10/26 00:20:24;;;;;;;694.67;659.30;;;11.40;99.90;;;;;;6126538;23;20427;-83
2021/10/26 00:22:52;;;;;;;691.17;656.37;;;11.30;99.90;;;;;;6126691;23;20453;-82
2021/10/26 00:25:19;;;;;;;684.93;649.70;;;11.30;99.90;;;;;;6136387;23;20410;-84
2021/10/26 00:27:48;;;;;;;694.97;658.77;;;11.30;99.90;;;;;;6136303;23;20489;-85
2021/10/26 00:30:17;;;;;;;701.33;664.87;;;11.40;99.90;;;;;;6126478;23;20473;-85
2021/10/26 00:32:45;;;;;;;686.13;650.97;;;11.20;99.90;;;;;;6135027;23;20403;-88
2021/10/26 00:35:12;;;;;;;692.80;656.90;;;11.30;99.90;;;;;;6135802;23;20415;-86
2021/10/26 00:37:39;;;;;;;683.17;648.87;;;11.30;99.90;;;;;;6126255;23;20430;-88
2021/10/26 00:42:42;;;;;;;695.10;659.50;;;11.20;99.90;;;;;;6147162;23;20500;-86
2021/10/26 00:45:10;;;;;;;702.23;666.07;;;11.20;99.90;;;;;;6155930;23;20403;-85
2021/10/26 00:47:36;;;;;;;706.07;668.20;;;11.20;99.90;;;;;;6154079;23;20438;-85
2021/10/26 00:50:06;;;;;;;716.50;676.90;;;11.20;99.90;;;;;;6155509;23;20442;-85
2021/10/26 00:52:33;;;;;;;709.50;671.20;;;11.30;99.90;;;;;;6165237;23;20441;-84
2021/10/26 00:55:02;;;;;;;683.10;647.63;;;11.20;99.90;;;;;;6165483;23;20469;-85
2021/10/26 00:57:32;;;;;;;678.57;643.60;;;11.20;99.90;;;;;;6165474;23;20403;-88
2021/10/26 01:00:02;;;;;;;674.70;641.27;;;11.30;99.90;;;;;;6155393;23;20409;-86
2021/10/26 01:02:41;;;;;;;677.10;641.90;;;11.20;99.90;;;;;;6154235;23;20918;-85
2021/10/26 01:05:27;;;;;;;668.10;633.80;;;11.40;99.90;;;;;;6165281;23;20413;-89
2021/10/26 01:07:54;;;;;;;664.60;630.97;;;11.40;99.90;;;;;;6165311;23;20430;-88
2021/10/26 01:10:22;;;;;;;657.10;624.60;;;11.20;99.90;;;;;;6155761;23;20410;-87
2021/10/26 01:12:54;;;;;;;661.13;628.37;;;11.10;99.90;;;;;;6165269;23;20440;-84
2021/10/26 01:15:21;;;;;;;680.83;645.00;;;11.10;99.90;;;;;;6165310;23;20421;-83
2021/10/26 01:17:54;;;;;;;675.83;640.97;;;10.90;99.90;;;;;;6164377;23;20422;-87
2021/10/26 01:20:27;;;;;;;703.17;664.70;;;11.00;99.90;;;;;;6155664;23;20461;-86
2021/10/26 01:22:57;;;;;;;721.53;680.70;;;10.90;99.90;;;;;;6165649;23;20438;-88
2021/10/26 01:25:42;;;;;;;;;;;;;;;;;;;;;
2021/10/26 01:28:12;;;;;;;750.33;703.90;;;11.00;99.90;;;;;;6167502;23;20731;-85
2021/10/26 01:30:45;;;;;;;730.33;685.93;;;11.20;99.90;;;;;;6143131;23;20807;-83
2021/10/26 01:33:12;;;;;;;739.83;694.03;;;11.20;99.90;;;;;;6136818;23;20435;-85
2021/10/26 01:35:43;;;;;;;737.20;691.90;;;11.20;99.90;;;;;;6137495;23;20470;-89
2021/10/26 01:38:11;;;;;;;734.57;690.77;;;11.30;99.90;;;;;;6128193;23;20442;-83
2021/10/26 01:40:38;;;;;;;729.13;686.87;;;11.20;99.90;;;;;;6137728;23;20473;-86
2021/10/26 01:43:05;;;;;;;728.57;686.83;;;11.20;99.90;;;;;;6137745;23;20982;-86
2021/10/26 01:48:07;;;;;;;749.20;703.50;;;11.10;99.90;;;;;;6122712;23;20471;-82
2021/10/26 01:50:36;;;;;;;766.47;719.17;;;11.00;99.90;;;;;;6167357;23;20410;-84
2021/10/26 01:53:06;;;;;;;769.10;720.40;;;10.90;99.90;;;;;;6167154;23;20406;-85
2021/10/26 01:55:33;;;;;;;773.37;724.00;;;10.90;99.90;;;;;;6166996;23;20910;-83
2021/10/26 01:58:00;;;;;;;788.63;738.13;;;10.90;99.90;;;;;;6157068;23;20407;-82
2021/10/26 02:00:27;;;;;;;789.80;738.20;;;11.00;99.90;;;;;;6157385;23;20736;-83
2021/10/26 02:03:00;;;;;;;795.70;742.30;;;10.90;99.90;;;;;;6156068;23;20410;-84
2021/10/26 02:05:27;;;;;;;784.53;732.30;;;10.90;99.90;;;;;;6157406;23;20407;-89
2021/10/26 02:07:54;;;;;;;784.77;733.00;;;11.00;99.90;;;;;;6166925;23;20484;-87
2021/10/26 02:10:22;;;;;;;771.77;720.93;;;11.00;99.90;;;;;;6157398;23;20886;-87
2021/10/26 02:12:49;;;;;;;777.23;726.90;;;11.20;99.90;;;;;;6157353;23;20721;-85
2021/10/26 02:15:17;;;;;;;784.63;733.83;;;11.00;99.90;;;;;;6156665;23;20421;-88
2021/10/26 02:17:44;;;;;;;786.73;735.87;;;11.10;99.90;;;;;;6156100;23;20493;-86
2021/10/26 02:20:13;;;;;;;767.20;717.03;;;11.10;99.90;;;;;;6157248;23;20409;-86
2021/10/26 02:22:40;;;;;;;765.30;715.40;;;11.20;99.90;;;;;;6157294;23;20406;-88
2021/10/26 02:25:10;;;;;;;756.23;706.50;;;11.20;99.90;;;;;;6140452;23;20433;-86
2021/10/26 02:27:39;;;;;;;750.80;701.70;;;11.20;99.90;;;;;;6166744;23;20437;-84
2021/10/26 02:30:09;;;;;;;735.33;688.30;;;11.20;99.90;;;;;;6144272;23;20957;-84
2021/10/26 02:32:36;;;;;;;728.40;683.57;;;11.30;99.90;;;;;;6135856;23;20419;-83
2021/10/26 02:35:03;;;;;;;699.33;657.77;;;11.40;99.90;;;;;;6127393;23;20403;-85
2021/10/26 02:37:30;;;;;;;689.37;650.07;;;11.30;99.90;;;;;;6136883;23;20939;-86
2021/10/26 02:40:00;;;;;;;679.03;641.67;;;11.40;99.90;;;;;;6137249;23;20425;-87
2021/10/26 02:42:27;;;;;;;693.20;654.20;;;11.40;99.90;;;;;;6127156;23;20884;-86
2021/10/26 02:44:58;;;;;;;691.13;653.13;;;11.50;99.90;;;;;;6137512;23;20407;-85
2021/10/26 02:47:26;;;;;;;683.67;647.07;;;11.50;99.90;;;;;;6135478;23;20819;-84
2021/10/26 02:49:55;;;;;;;681.73;645.63;;;11.50;99.90;;;;;;6136947;23;20497;-84
2021/10/26 02:52:25;;;;;;;680.33;644.63;;;11.40;99.90;;;;;;6136940;23;20415;-87
2021/10/26 02:54:53;;;;;;;680.43;644.67;;;11.40;99.90;;;;;;6127050;23;20470;-87
2021/10/26 02:57:20;;;;;;;693.97;656.27;;;11.40;99.90;;;;;;6137176;23;20434;-84
2021/10/26 02:59:47;;;;;;;696.73;658.93;;;11.40;99.90;;;;;;6127445;23;20410;-85
2021/10/26 03:02:16;;;;;;;696.13;658.53;;;11.30;99.90;;;;;;6135802;23;20422;-84
2021/10/26 03:04:45;;;;;;;711.37;671.33;;;11.20;99.90;;;;;;6127396;23;20410;-85
2021/10/26 03:07:14;;;;;;;711.50;671.00;;;11.20;99.90;;;;;;6127202;23;20831;-86
2021/10/26 03:09:42;;;;;;;720.10;677.70;;;11.20;99.90;;;;;;6136805;23;20740;-88
2021/10/26 03:12:09;;;;;;;725.37;681.37;;;11.20;99.90;;;;;;6137123;23;20411;-83
2021/10/26 03:14:36;;;;;;;731.07;687.77;;;11.20;99.90;;;;;;6127104;23;20884;-86
2021/10/26 03:17:04;;;;;;;744.93;700.50;;;11.20;99.90;;;;;;6135835;23;20464;-87
2021/10/26 03:19:32;;;;;;;762.80;716.50;;;11.00;99.90;;;;;;6136807;23;20407;-86
2021/10/26 03:22:00;;;;;;;768.20;720.60;;;11.00;99.90;;;;;;6127169;23;20459;-83
2021/10/26 03:24:30;;;;;;;771.30;722.40;;;10.90;99.90;;;;;;6126868;23;20411;-83
2021/10/26 03:26:57;;;;;;;783.77;733.57;;;10.90;99.90;;;;;;6136606;23;20470;-84
2021/10/26 03:29:25;;;;;;;796.47;745.20;;;10.80;99.90;;;;;;6136968;23;20521;-86
2021/10/26 03:31:53;;;;;;;786.43;735.87;;;10.80;99.90;;;;;;6125883;23;20403;-82
2021/10/26 03:34:20;;;;;;;808.00;752.87;;;10.50;99.90;;;;;;6136895;23;20413;-85
2021/10/26 03:36:49;;;;;;;801.37;746.03;;;10.50;99.90;;;;;;6136917;23;20411;-85
2021/10/26 03:39:16;;;;;;;796.70;738.60;;;10.50;99.90;;;;;;6126651;23;20912;-85
2021/10/26 03:41:43;;;;;;;805.97;746.93;;;10.60;99.90;;;;;;6126612;23;20884;-84
2021/10/26 03:44:10;;;;;;;812.10;750.57;;;10.60;99.90;;;;;;6127083;23;20403;-85
2021/10/26 03:46:37;;;;;;;820.63;757.87;;;10.30;99.90;;;;;;6135183;23;20786;-82
2021/10/26 03:49:06;;;;;;;831.23;768.33;;;10.40;99.90;;;;;;6126827;23;20490;-84
2021/10/26 03:51:35;;;;;;;830.80;765.00;;;10.40;99.90;;;;;;6136728;23;20494;-83
2021/10/26 03:54:05;;;;;;;834.47;767.70;;;10.40;99.90;;;;;;6136767;23;20407;-86
2021/10/26 03:56:32;;;;;;;846.23;779.53;;;10.40;99.90;;;;;;6136029;23;20419;-86
2021/10/26 03:59:02;;;;;;;840.53;774.03;;;10.40;99.90;;;;;;6136424;23;20407;-86
2021/10/26 04:01:30;;;;;;;834.87;769.00;;;10.50;99.90;;;;;;6135523;23;20419;-84
2021/10/26 04:03:59;;;;;;;832.13;765.10;;;10.40;99.90;;;;;;6136666;23;20422;-86
2021/10/26 04:06:28;;;;;;;831.50;765.73;;;10.40;99.90;;;;;;6126848;23;20408;-82
2021/10/26 04:08:58;;;;;;;831.13;764.77;;;10.40;99.90;;;;;;6136442;23;20477;-86
2021/10/26 04:11:28;;;;;;;842.23;775.80;;;10.40;99.90;;;;;;6136239;23;20797;-87
2021/10/26 04:13:55;;;;;;;868.03;800.57;;;10.40;99.90;;;;;;6137281;23;20727;-82
2021/10/26 04:16:25;;;;;;;855.07;788.03;;;10.40;99.90;;;;;;6135307;23;20821;-84
2021/10/26 04:18:52;;;;;;;851.90;785.57;;;10.40;99.90;;;;;;6126652;23;20411;-85
2021/10/26 04:21:21;;;;;;;858.03;791.30;;;10.30;99.90;;;;;;6136452;23;20421;-86
2021/10/26 04:23:50;;;;;;;863.83;797.00;;;10.40;99.90;;;;;;6136608;23;20407;-84
2021/10/26 04:26:18;;;;;;;858.43;791.13;;;10.10;99.90;;;;;;6126131;23;20985;-85
2021/10/26 04:28:47;;;;;;;860.83;792.27;;;10.10;99.90;;;;;;6136295;23;20773;-86
2021/10/26 04:31:17;;;;;;;867.77;798.30;;;10.10;99.90;;;;;;6136070;23;20414;-82
2021/10/26 04:33:49;;;;;;;888.33;815.63;;;10.10;99.90;;;;;;6135139;23;20934;-83
2021/10/26 04:36:16;;;;;;;875.13;802.70;;;10.10;99.90;;;;;;6136573;23;20517;-83
2021/10/26 04:38:44;;;;;;;875.93;801.90;;;10.10;99.90;;;;;;6137341;23;20404;-82
2021/10/26 04:41:18;;;;;;;862.80;788.70;;;10.20;99.90;;;;;;6126096;23;20449;-82
2021/10/26 04:43:46;;;;;;;852.13;780.53;;;10.20;99.90;;;;;;6136360;23;20993;-80
2021/10/26 04:46:19;;;;;;;856.97;786.00;;;10.30;99.90;;;;;;6135941;23;20403;-82
2021/10/26 04:48:46;;;;;;;848.27;776.97;;;10.30;99.90;;;;;;6125648;23;20443;-85
2021/10/26 04:51:14;;;;;;;850.30;779.23;;;10.30;99.90;;;;;;6126528;23;20490;-81
2021/10/26 04:53:41;;;;;;;849.53;779.33;;;10.50;99.90;;;;;;6126255;23;20418;-86
2021/10/26 04:56:10;;;;;;;860.87;792.07;;;10.50;99.90;;;;;;6136122;23;20437;-81
2021/10/26 04:58:42;;;;;;;872.53;805.27;;;10.60;99.90;;;;;;6135868;23;20753;-85
2021/10/26 05:01:11;;;;;;;843.70;779.67;;;10.70;99.90;;;;;;6126600;23;20430;-88
2021/10/26 05:03:38;;;;;;;833.30;772.80;;;10.60;99.90;;;;;;6134996;23;20407;-88
2021/10/26 05:06:04;;;;;;;830.27;771.43;;;10.60;99.90;;;;;;6125923;23;20498;-88
2021/10/26 05:08:31;;;;;;;831.20;772.57;;;10.40;99.90;;;;;;6126141;23;20466;-88
2021/10/26 05:10:58;;;;;;;831.27;771.60;;;10.40;99.90;;;;;;6135904;23;20418;-88
2021/10/26 05:13:26;;;;;;;827.93;768.10;;;10.30;99.90;;;;;;6136338;23;20495;-88
2021/10/26 05:15:53;;;;;;;843.03;781.70;;;10.30;99.90;;;;;;6126743;23;20498;-88
2021/10/26 05:18:22;;;;;;;837.50;774.87;;;10.00;99.90;;;;;;6125008;23;20411;-87
2021/10/26 05:20:50;;;;;;;834.13;768.83;;;10.10;99.90;;;;;;6126377;23;20410;-86
2021/10/26 05:23:18;;;;;;;834.00;766.10;;;10.20;99.90;;;;;;6126383;23;20430;-87
2021/10/26 05:25:48;;;;;;;842.40;772.47;;;10.10;99.90;;;;;;6135809;23;20477;-85
2021/10/26 05:28:16;;;;;;;837.73;767.17;;;10.20;99.90;;;;;;6126074;23;20450;-87
2021/10/26 05:30:43;;;;;;;832.90;762.70;;;10.30;99.90;;;;;;6126291;23;20403;-86
2021/10/26 05:33:11;;;;;;;827.53;758.37;;;10.50;99.90;;;;;;6125131;23;20490;-86
2021/10/26 05:35:39;;;;;;;819.47;752.97;;;10.50;99.90;;;;;;6135941;23;21014;-88
2021/10/26 05:38:06;;;;;;;819.70;753.77;;;10.50;99.90;;;;;;6136155;23;20435;-87
2021/10/26 05:40:33;;;;;;;816.30;752.80;;;10.60;99.90;;;;;;6136138;23;20426;-86
2021/10/26 05:42:59;;;;;;;818.83;758.10;;;10.60;99.90;;;;;;6136016;23;20501;-81
2021/10/26 05:45:26;;;;;;;823.50;763.67;;;10.50;99.90;;;;;;6125888;23;20959;-85
2021/10/26 05:47:53;;;;;;;834.77;775.43;;;10.40;99.90;;;;;;6124617;23;20470;-85
2021/10/26 05:50:20;;;;;;;837.03;777.47;;;10.30;99.90;;;;;;6125917;23;20410;-87
2021/10/26 05:52:48;;;;;;;837.50;775.97;;;10.10;99.90;;;;;;6135627;23;20411;-88
2021/10/26 05:55:15;;;;;;;837.37;773.20;;;10.00;99.90;;;;;;6125839;23;20493;-87
2021/10/26 05:57:42;;;;;;;838.40;772.50;;;10.00;99.90;;;;;;6125740;23;20462;-87
2021/10/26 06:00:10;;;;;;;850.83;783.23;;;10.00;99.90;;;;;;6135508;23;20425;-87
2021/10/26 06:02:37;;;;;;;858.97;790.90;;;9.90;99.90;;;;;;6134639;23;20486;-87
2021/10/26 06:05:44;;;;;;;852.43;782.87;;;9.80;99.90;;;;;;6135779;23;20793;-81
2021/10/26 06:08:13;;;;;;;851.10;781.10;;;10.00;99.90;;;;;;6106877;23;20465;-88
2021/10/26 06:10:43;;;;;;;872.40;801.20;;;10.00;99.90;;;;;;6126730;23;20407;-88
2021/10/26 06:13:16;;;;;;;877.83;805.87;;;9.90;99.90;;;;;;6127565;23;20405;-87
2021/10/26 06:15:43;;;;;;;873.87;802.40;;;9.90;99.90;;;;;;6127752;23;20410;-92
2021/10/26 06:18:10;;;;;;;875.33;803.83;;;9.90;99.90;;;;;;6136377;23;20930;-90
2021/10/26 06:20:36;;;;;;;879.43;807.87;;;9.90;99.90;;;;;;6137763;23;20413;-90
2021/10/26 06:23:04;;;;;;;882.37;809.93;;;9.80;99.90;;;;;;6137361;23;20473;-89
2021/10/26 06:25:32;;;;;;;870.87;799.90;;;9.70;99.90;;;;;;6136433;23;20441;-90
2021/10/26 06:27:59;;;;;;;846.60;775.80;;;9.70;99.90;;;;;;6137334;23;20447;-90
2021/10/26 06:30:26;;;;;;;852.27;779.07;;;9.70;99.90;;;;;;6127549;23;20418;-91
2021/10/26 06:32:53;;;;;;;851.33;778.53;;;9.80;99.90;;;;;;6126114;23;20409;-91
2021/10/26 06:35:20;;;;;;;853.40;779.10;;;9.80;99.90;;;;;;6137280;23;20434;-89
2021/10/26 06:37:47;;;;;;;844.93;770.53;;;9.90;99.90;;;;;;6128479;23;20407;-91
2021/10/26 06:40:15;;;;;;;857.40;782.07;;;10.10;99.90;;;;;;6128156;23;20400;-83
2021/10/26 06:42:44;;;;;;;863.60;787.80;;;10.00;99.90;;;;;;6127574;23;20426;-84
2021/10/26 06:45:12;;;;;;;849.40;775.67;;;10.20;99.90;;;;;;6127569;23;20435;-86
2021/10/26 06:47:39;;;;;;;843.27;770.57;;;10.30;99.90;;;;;;6129803;23;20462;-89
2021/10/26 06:50:08;;;;;;;844.33;772.63;;;10.40;99.90;;;;;;6129304;23;20879;-89
2021/10/26 06:52:36;;;;;;;842.80;772.63;;;10.40;99.90;;;;;;6101847;23;20451;-79
2021/10/26 06:55:05;;;;;;;844.73;774.73;;;10.30;99.90;;;;;;6129938;23;20403;-87
2021/10/26 06:57:32;;;;;;;846.17;775.93;;;10.50;99.90;;;;;;6141091;23;20422;-88
2021/10/26 07:00:00;;;;;;;845.80;776.30;;;10.60;99.90;;;;;;6132374;23;20931;-88
2021/10/26 07:02:30;;;;;;;830.13;763.43;;;10.70;99.90;;;;;;6139215;23;20501;-88
2021/10/26 07:05:03;;;;;;;822.67;759.00;;;10.90;99.90;;;;;;6128503;23;20407;-88
2021/10/26 07:07:30;;;;;;;805.80;745.93;;;11.00;99.90;;;;;;6128226;23;20928;-86
2021/10/26 07:10:03;;;;;;;796.57;739.57;;;11.20;99.90;;;;;;6138011;23;20473;-88
2021/10/26 07:12:30;;;;;;;774.93;722.00;;;11.30;99.90;;;;;;6127847;23;20403;-87
2021/10/26 07:14:57;;;;;;;771.83;721.63;;;11.40;99.90;;;;;;6128746;23;20454;-87
2021/10/26 07:17:25;;;;;;;753.97;707.97;;;11.50;99.90;;;;;;6126016;23;20415;-84
2021/10/26 07:19:52;;;;;;;744.73;699.40;;;11.50;99.90;;;;;;6137099;23;20423;-87
2021/10/26 07:22:20;;;;;;;702.53;663.73;;;11.60;99.90;;;;;;6127599;23;20490;-88
2021/10/26 07:24:55;;;;;;;698.03;660.53;;;11.70;99.90;;;;;;6136762;23;20407;-88
2021/10/26 07:27:22;;;;;;;643.07;610.87;;;11.70;99.90;;;;;;6128312;23;20410;-88
2021/10/26 07:29:51;;;;;;;631.03;599.97;;;11.80;99.90;;;;;;6135620;23;20465;-88
2021/10/26 07:32:18;;;;;;;581.57;555.13;;;12.00;99.90;;;;;;6138233;23;20478;-89
2021/10/26 07:34:47;;;;;;;473.97;454.63;;;11.90;99.90;;;;;;6129259;23;20403;-87
2021/10/26 07:37:15;;;;;;;467.60;447.10;;;11.90;99.90;;;;;;6129144;23;20419;-89
2021/10/26 07:39:46;;;;;;;452.83;434.53;;;11.90;99.90;;;;;;6127883;23;20954;-89
2021/10/26 07:42:14;;;;;;;451.27;432.57;;;11.90;99.90;;;;;;6137217;23;20411;-88
2021/10/26 07:44:44;;;;;;;432.40;415.00;;;11.90;99.90;;;;;;6138733;23;20789;-89
2021/10/26 07:47:15;;;;;;;434.87;416.77;;;11.70;99.90;;;;;;6129059;23;20398;-88
2021/10/26 07:49:43;;;;;;;429.93;412.03;;;11.70;99.90;;;;;;6139945;23;20435;-86
2021/10/26 07:52:13;;;;;;;423.30;406.47;;;11.70;99.90;;;;;;6128554;23;20733;-89
2021/10/26 07:54:50;;;;;;;456.33;437.63;;;11.70;99.90;;;;;;6130303;23;20934;-89
2021/10/26 07:57:17;;;;;;;476.67;455.63;;;11.70;99.90;;;;;;6136585;23;20414;-79
2021/10/26 07:59:47;;;;;;;484.00;463.33;;;11.60;99.90;;;;;;6127453;23;20439;-87
2021/10/26 08:02:16;;;;;;;513.57;491.20;;;11.60;99.90;;;;;;6135891;23;20407;-85
2021/10/26 08:04:44;;;;;;;518.03;495.60;;;11.60;99.90;;;;;;6136499;23;20453;-88
2021/10/26 08:07:16;;;;;;;579.50;552.23;;;11.80;99.90;;;;;;6136197;23;20418;-87
2021/10/26 08:09:46;;;;;;;525.50;502.73;;;12.00;99.90;;;;;;6126699;23;20434;-87
2021/10/26 08:12:13;;;;;;;395.63;380.53;;;12.10;99.90;;;;;;6126460;23;20951;-87
2021/10/26 08:14:42;;;;;;;366.90;352.53;;;12.40;99.90;;;;;;6126826;23;20403;-87
2021/10/26 08:17:10;;;;;;;211.17;203.17;;;12.50;99.90;;;;;;6124842;23;20403;-86
2021/10/26 08:19:37;;;;;;;138.63;133.47;;;12.50;99.90;;;;;;6126259;23;20430;-88
2021/10/26 08:22:07;;;;;;;106.10;101.73;;;12.60;99.90;;;;;;6126484;23;20443;-87
2021/10/26 08:24:35;;;;;;;59.60;55.80;;;12.60;99.90;;;;;;6135869;23;20422;-86
2021/10/26 08:27:04;;;;;;;60.77;57.83;;;12.60;99.90;;;;;;6126201;23;20445;-87
2021/10/26 08:29:43;;;;;;;56.30;53.30;;;12.70;99.90;;;;;;6126250;23;20439;-87
2021/10/26 08:35:15;;;;;;;64.77;61.63;;;12.90;99.90;;;;;;6125307;23;20410;-86
2021/10/26 08:37:43;;;;;;;29.73;27.43;;;13.00;99.90;;;;;;6126248;23;20887;-86
2021/10/26 08:40:12;;;;;;;27.73;25.53;;;12.90;99.30;;;;;;6126590;23;20459;-86
2021/10/26 08:42:39;;;;;;;35.57;33.03;;;13.00;98.90;;;;;;6136499;23;20453;-88
2021/10/26 08:45:08;;;;;;;22.50;20.60;;;13.00;98.90;;;;;;6126630;23;20403;-88
2021/10/26 08:47:39;;;;;;;24.57;22.17;;;13.00;98.50;;;;;;6124880;23;20469;-88
2021/10/26 08:50:07;;;;;;;17.23;14.50;;;13.00;98.20;;;;;;6136314;23;20430;-87
2021/10/26 08:52:34;;;;;;;26.30;24.00;;;12.90;97.60;;;;;;6126608;23;20498;-88
2021/10/26 08:55:01;;;;;;;37.90;35.20;;;12.80;98.60;;;;;;6126491;23;20408;-87
2021/10/26 08:57:32;;;;;;;58.33;54.73;;;12.70;98.80;;;;;;6136085;23;20910;-88
2021/10/26 09:00:05;;;;;;;60.07;56.40;;;12.80;99.10;;;;;;6126086;23;20403;-87
2021/10/26 09:02:35;;;;;;;65.23;61.63;;;12.70;98.70;;;;;;6134284;23;20426;-87
2021/10/26 09:05:10;;;;;;;50.80;47.80;;;12.70;98.90;;;;;;6126827;23;20512;-87
2021/10/26 09:07:38;;;;;;;55.20;51.37;;;12.70;98.70;;;;;;6126347;23;20438;-86
2021/10/26 09:10:15;;;;;;;51.13;47.90;;;12.60;98.90;;;;;;6126374;23;20776;-87
2021/10/26 09:18:28;;;;;;;31.13;29.23;;;12.70;98.70;;;;;;6134430;23;20771;-88
2021/10/26 09:20:55;;;;;;;38.90;36.50;;;12.70;98.30;;;;;;6126292;23;20402;-88
2021/10/26 09:23:26;;;;;;;31.73;29.00;;;12.80;97.70;;;;;;6126251;23;20403;-88
2021/10/26 09:26:01;;;;;;;33.90;31.20;;;13.00;97.70;;;;;;6135582;23;20438;-88
2021/10/26 09:28:32;;;;;;;20.40;19.10;;;13.20;97.00;;;;;;6126198;23;20521;-88
2021/10/26 09:31:01;;;;;;;16.70;15.00;;;13.30;95.90;;;;;;6136516;23;20407;-88
2021/10/26 09:33:31;;;;;;;16.87;13.37;;;13.40;96.10;;;;;;6124567;23;20403;-88
2021/10/26 09:36:24;;;;;;;21.00;12.20;;;13.40;95.00;;;;;;6136675;23;20411;-88
2021/10/26 09:39:10;;;;;;;18.30;10.60;;;13.50;95.20;;;;;;6136462;23;20506;-87
2021/10/26 09:42:09;;;;;;;13.40;8.47;;;13.60;93.90;;;;;;6136068;23;20421;-87
2021/10/26 09:44:40;;;;;;;15.30;8.20;;;13.60;92.80;;;;;;6136399;23;20453;-88
2021/10/26 09:47:11;;;;;;;14.40;7.57;;;13.50;92.40;;;;;;6136231;23;20441;-86
2021/10/26 09:49:41;;;;;;;15.63;7.40;;;13.40;90.90;;;;;;6127944;23;20446;-88
2021/10/26 09:52:13;;;;;;;14.20;6.80;;;13.80;91.10;;;;;;6137510;23;20421;-87
2021/10/26 09:54:41;;;;;;;14.27;5.63;;;14.10;90.30;;;;;;6128535;23;20399;-87
2021/10/26 09:57:10;;;;;;;16.50;6.47;;;14.10;87.80;;;;;;6128413;23;20408;-87
2021/10/26 09:59:49;;;;;;;9.90;6.40;;;14.20;86.30;;;;;;6128260;23;20740;-89
2021/10/26 10:02:21;;;;;;;11.40;5.77;;;14.40;85.40;;;;;;6136538;23;20469;-88
2021/10/26 10:05:05;;;;;;;13.17;6.23;;;14.50;82.60;;;;;;6127848;23;20907;-88
2021/10/26 10:07:33;;;;;;;9.63;5.23;;;14.50;82.50;;;;;;6138642;23;20410;-87
2021/10/26 10:10:04;;;;;;;11.30;4.90;;;14.50;81.10;;;;;;6138169;23;20437;-89
2021/10/26 10:12:32;;;;;;;12.00;6.33;;;14.60;81.10;;;;;;6128595;23;20494;-88
2021/10/26 10:15:05;;;;;;;9.20;5.67;;;14.70;80.00;;;;;;6128468;23;20408;-86
2021/10/26 10:17:34;;;;;;;10.83;5.70;;;14.70;80.00;;;;;;6136444;23;20423;-88
2021/10/26 10:20:07;;;;;;;9.43;4.57;;;14.80;79.50;;;;;;6138255;23;20439;-88
2021/10/26 10:22:38;;;;;;;10.93;5.30;;;14.70;77.80;;;;;;6137878;23;20494;-88
2021/10/26 10:25:10;;;;;;;9.90;5.17;;;14.80;77.80;;;;;;6127739;23;20513;-88
2021/10/26 10:27:45;;;;;;;8.27;4.10;;;15.20;79.00;;;;;;6137897;23;20449;-87
2021/10/26 10:30:17;;;;;;;9.67;4.13;;;15.10;73.70;;;;;;6137546;23;20472;-89
2021/10/26 10:32:51;;;;;;;9.73;4.40;;;15.30;75.40;;;;;;6136274;23;20421;-88
2021/10/26 10:35:20;;;;;;;10.10;4.47;;;15.60;72.60;;;;;;6137587;23;20413;-88
2021/10/26 10:37:58;;;;;;;8.63;4.43;;;15.90;72.90;;;;;;6137400;23;20409;-88
2021/10/26 10:40:42;;;;;;;12.60;5.00;;;15.80;71.00;;;;;;6137336;23;20939;-88
2021/10/26 10:43:12;;;;;;;11.73;5.20;;;15.90;70.30;;;;;;6137237;23;20432;-88
2021/10/26 10:45:44;;;;;;;11.10;4.80;;;15.90;67.10;;;;;;6137949;23;20410;-88
2021/10/26 10:48:27;;;;;;;13.73;4.80;;;15.60;67.40;;;;;;6125910;23;20420;-87
2021/10/26 10:51:12;;;;;;;9.83;3.67;;;15.60;67.30;;;;;;6137690;23;20821;-87
2021/10/26 10:53:42;;;;;;;11.23;4.00;;;15.60;66.10;;;;;;6127974;23;20406;-88
2021/10/26 10:56:21;;;;;;;10.27;3.57;;;15.70;66.10;;;;;;6127233;23;20421;-89
2021/10/26 10:58:49;;;;;;;11.10;4.07;;;16.00;65.10;;;;;;6127980;23;20409;-88
2021/10/26 11:01:30;;;;;;;8.10;3.13;;;16.10;64.40;;;;;;6137838;23;20723;-89
2021/10/26 11:09:46;;;;;;;7.43;3.23;;;15.70;65.50;;;;;;6146348;23;20519;-86
2021/10/26 11:12:22;;;;;;;10.47;3.50;;;15.80;65.10;;;;;;6167350;23;20419;-88
2021/10/26 11:14:58;;;;;;;8.80;3.70;;;15.90;64.10;;;;;;6167230;23;20418;-88
2021/10/26 11:18:07;;;;;;;9.63;3.20;;;16.00;65.00;;;;;;6165447;23;20436;-88
2021/10/26 11:20:55;;;;;;;12.40;3.70;;;16.50;61.50;;;;;;6166473;23;20417;-87
2021/10/26 11:23:48;;;;;;;10.97;3.40;;;16.50;60.70;;;;;;6167006;23;20415;-88
2021/10/26 11:26:34;;;;;;;6.93;3.80;;;16.60;58.70;;;;;;6159873;23;20443;-86
2021/10/26 11:29:03;;;;;;;14.73;4.87;;;16.50;58.60;;;;;;6127776;23;20787;-87
2021/10/26 11:31:48;;;;;;;8.77;3.60;;;16.10;58.60;;;;;;6137487;23;20411;-88
2021/10/26 11:34:22;;;;;;;15.80;3.40;;;15.90;59.50;;;;;;6136971;23;20421;-88
2021/10/26 11:37:03;;;;;;;7.53;3.10;;;16.20;59.60;;;;;;6137063;23;20413;-86
2021/10/26 11:39:33;;;;;;;8.90;3.60;;;17.10;57.40;;;;;;6137094;23;20409;-89
2021/10/26 11:42:11;;;;;;;7.73;2.57;;;17.60;53.20;;;;;;6127056;23;20421;-88
2021/10/26 11:44:43;;;;;;;11.50;3.33;;;17.70;50.20;;;;;;6126630;23;20402;-89
2021/10/26 11:47:40;;;;;;;8.13;3.30;;;18.10;51.40;;;;;;6135344;23;20425;-88
2021/10/26 11:50:10;;;;;;;13.30;3.50;;;18.20;50.10;;;;;;6126986;23;20438;-89
2021/10/26 11:52:43;;;;;;;16.53;4.23;;;18.10;46.20;;;;;;6136727;23;20420;-89
2021/10/26 11:55:10;;;;;;;10.17;3.63;;;17.70;47.60;;;;;;6126756;23;20424;-89
2021/10/26 11:57:37;;;;;;;10.53;3.37;;;17.00;49.60;;;;;;6136342;23;20417;-88
2021/10/26 12:00:07;;;;;;;12.63;2.97;;;16.70;50.10;;;;;;6126955;23;20413;-89
2021/10/26 12:02:37;;;;;;;12.10;3.70;;;17.00;50.40;;;;;;6135402;23;20920;-87
2021/10/26 12:05:08;;;;;;;9.73;2.73;;;17.40;47.30;;;;;;6136625;23;20415;-89
2021/10/26 12:07:37;;;;;;;8.33;2.67;;;16.90;48.60;;;;;;6126088;23;20437;-89
2021/10/26 12:10:06;;;;;;;14.03;3.90;;;16.90;49.60;;;;;;6136014;23;20516;-89
2021/10/26 12:12:35;;;;;;;7.37;2.57;;;16.90;50.40;;;;;;6136576;23;20422;-88
2021/10/26 12:15:04;;;;;;;8.13;2.30;;;16.80;49.70;;;;;;6136596;23;20417;-88
2021/10/26 12:17:43;;;;;;;6.40;2.53;;;17.50;48.90;;;;;;6134959;23;20416;-88
2021/10/26 12:20:13;;;;;;;8.47;2.93;;;17.50;45.50;;;;;;6136500;23;20459;-90
2021/10/26 12:22:46;;;;;;;9.37;3.17;;;17.50;45.10;;;;;;6135999;23;20910;-89
2021/10/26 12:25:20;;;;;;;9.13;2.63;;;17.70;46.30;;;;;;6136663;23;20407;-88
2021/10/26 12:27:49;;;;;;;12.60;3.07;;;18.00;44.50;;;;;;6136485;23;20407;-89
2021/10/26 12:33:32;;;;;;;6.33;2.83;;;18.00;45.40;;;;;;6135025;23;20406;-89
2021/10/26 12:36:05;;;;;;;12.60;4.60;;;17.70;46.20;;;;;;6136307;23;20459;-86
2021/10/26 12:38:46;;;;;;;9.90;3.07;;;17.40;46.70;;;;;;6136178;23;20418;-86
2021/10/26 12:41:27;;;;;;;10.37;3.00;;;17.00;47.60;;;;;;6135720;23;20797;-90
2021/10/26 12:44:04;;;;;;;8.20;3.33;;;16.90;48.20;;;;;;6136242;23;20712;-87
2021/10/26 12:46:39;;;;;;;14.13;3.40;;;17.60;45.80;;;;;;6136275;23;20418;-90
2021/10/26 12:49:19;;;;;;;9.43;3.30;;;18.00;44.70;;;;;;6135033;23;20925;-89
2021/10/26 12:51:52;;;;;;;8.50;2.20;;;17.90;44.80;;;;;;6126295;23;20463;-88
2021/10/26 12:54:24;;;;;;;11.70;2.63;;;16.90;46.30;;;;;;6135819;23;20413;-90
2021/10/26 12:56:55;;;;;;;8.20;2.50;;;16.30;49.80;;;;;;6135740;23;20415;-90